sensor_id;sensor_type;location;lat;lon;timestamp;P1;durP1;ratioP1;P2;durP2;ratioP2
76761;SDS011;65705;51.032;13.790;2023-07-31T00:01:56;2.80;;;1.30;;
76761;SDS011;65705;51.032;13.790;2023-07-31T00:04:21;4.38;;;1.70;;
76761;SDS011;65705;51.032;13.790;2023-07-31T00:06:47;2.88;;;1.50;;
76761;SDS011;65705;51.032;13.790;2023-07-31T00:09:13;4.15;;;1.40;;
76761;SDS011;65705;51.032;13.790;2023-07-31T00:11:38;8.18;;;1.40;;
76761;SDS011;65705;51.032;13.790;2023-07-31T00:14:04;4.05;;;1.55;;
76761;SDS011;65705;51.032;13.790;2023-07-31T00:16:29;3.55;;;1.40;;
76761;SDS011;65705;51.032;13.790;2023-07-31T00:18:55;4.80;;;1.73;;
76761;SDS011;65705;51.032;13.790;2023-07-31T00:21:21;6.15;;;1.92;;
76761;SDS011;65705;51.032;13.790;2023-07-31T00:23:47;4.32;;;1.30;;
76761;SDS011;65705;51.032;13.790;2023-07-31T00:26:12;2.38;;;1.30;;
76761;SDS011;65705;51.032;13.790;2023-07-31T00:28:38;5.82;;;1.50;;
76761;SDS011;65705;51.032;13.790;2023-07-31T00:31:04;2.90;;;1.48;;
76761;SDS011;65705;51.032;13.790;2023-07-31T00:33:31;4.85;;;1.90;;
76761;SDS011;65705;51.032;13.790;2023-07-31T00:35:57;4.65;;;1.23;;
76761;SDS011;65705;51.032;13.790;2023-07-31T00:38:24;4.68;;;1.38;;
76761;SDS011;65705;51.032;13.790;2023-07-31T00:40:50;6.43;;;1.63;;
76761;SDS011;65705;51.032;13.790;2023-07-31T00:43:16;4.15;;;1.30;;
76761;SDS011;65705;51.032;13.790;2023-07-31T00:45:42;4.20;;;1.42;;
76761;SDS011;65705;51.032;13.790;2023-07-31T00:48:07;4.25;;;1.40;;
76761;SDS011;65705;51.032;13.790;2023-07-31T00:50:33;4.55;;;1.50;;
76761;SDS011;65705;51.032;13.790;2023-07-31T00:53:00;5.93;;;1.45;;
76761;SDS011;65705;51.032;13.790;2023-07-31T00:55:26;3.47;;;1.13;;
76761;SDS011;65705;51.032;13.790;2023-07-31T00:57:52;4.72;;;1.70;;
76761;SDS011;65705;51.032;13.790;2023-07-31T01:00:18;5.32;;;1.40;;
76761;SDS011;65705;51.032;13.790;2023-07-31T01:02:44;7.35;;;1.55;;
76761;SDS011;65705;51.032;13.790;2023-07-31T01:05:10;6.05;;;1.30;;
76761;SDS011;65705;51.032;13.790;2023-07-31T01:07:56;8.93;;;1.38;;
76761;SDS011;65705;51.032;13.790;2023-07-31T01:10:37;4.00;;;1.10;;
76761;SDS011;65705;51.032;13.790;2023-07-31T01:13:10;6.07;;;1.45;;
76761;SDS011;65705;51.032;13.790;2023-07-31T01:15:36;4.82;;;1.20;;
76761;SDS011;65705;51.032;13.790;2023-07-31T01:18:04;5.55;;;1.60;;
76761;SDS011;65705;51.032;13.790;2023-07-31T01:20:29;6.47;;;1.70;;
76761;SDS011;65705;51.032;13.790;2023-07-31T01:28:04;5.55;;;1.35;;
76761;SDS011;65705;51.032;13.790;2023-07-31T01:30:37;3.55;;;1.23;;
76761;SDS011;65705;51.032;13.790;2023-07-31T01:33:08;5.25;;;1.48;;
76761;SDS011;65705;51.032;13.790;2023-07-31T01:35:35;3.42;;;1.10;;
76761;SDS011;65705;51.032;13.790;2023-07-31T01:38:02;5.13;;;1.35;;
76761;SDS011;65705;51.032;13.790;2023-07-31T01:40:27;6.03;;;1.20;;
76761;SDS011;65705;51.032;13.790;2023-07-31T01:42:53;9.50;;;1.50;;
76761;SDS011;65705;51.032;13.790;2023-07-31T01:45:19;3.20;;;1.10;;
76761;SDS011;65705;51.032;13.790;2023-07-31T01:47:45;4.68;;;1.33;;
76761;SDS011;65705;51.032;13.790;2023-07-31T01:50:11;6.75;;;1.80;;
76761;SDS011;65705;51.032;13.790;2023-07-31T01:52:37;6.95;;;1.55;;
76761;SDS011;65705;51.032;13.790;2023-07-31T01:55:02;5.10;;;1.40;;
76761;SDS011;65705;51.032;13.790;2023-07-31T01:57:28;4.40;;;1.35;;
76761;SDS011;65705;51.032;13.790;2023-07-31T01:59:54;6.50;;;2.00;;
76761;SDS011;65705;51.032;13.790;2023-07-31T02:02:20;4.50;;;1.30;;
76761;SDS011;65705;51.032;13.790;2023-07-31T02:04:46;3.90;;;1.20;;
76761;SDS011;65705;51.032;13.790;2023-07-31T02:07:12;6.90;;;1.20;;
76761;SDS011;65705;51.032;13.790;2023-07-31T02:09:38;7.38;;;1.58;;
76761;SDS011;65705;51.032;13.790;2023-07-31T02:12:04;4.15;;;1.40;;
76761;SDS011;65705;51.032;13.790;2023-07-31T02:14:30;3.08;;;1.23;;
76761;SDS011;65705;51.032;13.790;2023-07-31T02:16:55;3.92;;;1.20;;
76761;SDS011;65705;51.032;13.790;2023-07-31T02:19:21;4.75;;;1.50;;
76761;SDS011;65705;51.032;13.790;2023-07-31T02:21:47;5.35;;;1.40;;
76761;SDS011;65705;51.032;13.790;2023-07-31T02:24:12;5.45;;;1.25;;
76761;SDS011;65705;51.032;13.790;2023-07-31T02:26:38;4.90;;;1.20;;
76761;SDS011;65705;51.032;13.790;2023-07-31T02:29:04;3.92;;;1.30;;
76761;SDS011;65705;51.032;13.790;2023-07-31T02:31:30;6.38;;;1.50;;
76761;SDS011;65705;51.032;13.790;2023-07-31T02:33:55;4.68;;;1.20;;
76761;SDS011;65705;51.032;13.790;2023-07-31T02:36:21;2.83;;;1.10;;
76761;SDS011;65705;51.032;13.790;2023-07-31T02:38:47;8.68;;;1.40;;
76761;SDS011;65705;51.032;13.790;2023-07-31T02:41:12;3.45;;;1.10;;
76761;SDS011;65705;51.032;13.790;2023-07-31T02:43:38;7.53;;;1.25;;
76761;SDS011;65705;51.032;13.790;2023-07-31T02:46:04;2.97;;;1.13;;
76761;SDS011;65705;51.032;13.790;2023-07-31T02:48:30;4.70;;;1.58;;
76761;SDS011;65705;51.032;13.790;2023-07-31T02:50:56;4.35;;;1.27;;
76761;SDS011;65705;51.032;13.790;2023-07-31T02:53:21;4.85;;;1.33;;
76761;SDS011;65705;51.032;13.790;2023-07-31T02:55:48;4.18;;;1.30;;
76761;SDS011;65705;51.032;13.790;2023-07-31T02:58:14;5.10;;;1.38;;
76761;SDS011;65705;51.032;13.790;2023-07-31T03:00:41;3.55;;;1.20;;
76761;SDS011;65705;51.032;13.790;2023-07-31T03:03:08;5.05;;;1.52;;
76761;SDS011;65705;51.032;13.790;2023-07-31T03:05:34;5.38;;;1.33;;
76761;SDS011;65705;51.032;13.790;2023-07-31T03:07:59;7.55;;;1.40;;
76761;SDS011;65705;51.032;13.790;2023-07-31T03:10:25;5.45;;;1.33;;
76761;SDS011;65705;51.032;13.790;2023-07-31T03:12:51;5.97;;;1.33;;
76761;SDS011;65705;51.032;13.790;2023-07-31T03:15:16;6.20;;;1.10;;
76761;SDS011;65705;51.032;13.790;2023-07-31T03:17:42;4.70;;;1.27;;
76761;SDS011;65705;51.032;13.790;2023-07-31T03:20:08;5.10;;;1.27;;
76761;SDS011;65705;51.032;13.790;2023-07-31T03:22:34;5.80;;;1.50;;
76761;SDS011;65705;51.032;13.790;2023-07-31T03:25:01;2.90;;;1.20;;
76761;SDS011;65705;51.032;13.790;2023-07-31T03:27:27;6.00;;;1.20;;
76761;SDS011;65705;51.032;13.790;2023-07-31T03:29:53;3.65;;;1.33;;
76761;SDS011;65705;51.032;13.790;2023-07-31T03:32:18;5.82;;;1.10;;
76761;SDS011;65705;51.032;13.790;2023-07-31T03:34:44;5.47;;;1.60;;
76761;SDS011;65705;51.032;13.790;2023-07-31T03:37:10;7.03;;;1.50;;
76761;SDS011;65705;51.032;13.790;2023-07-31T03:39:36;4.18;;;1.23;;
76761;SDS011;65705;51.032;13.790;2023-07-31T03:42:01;6.32;;;1.45;;
76761;SDS011;65705;51.032;13.790;2023-07-31T03:44:28;4.65;;;1.17;;
76761;SDS011;65705;51.032;13.790;2023-07-31T03:46:54;3.63;;;1.27;;
76761;SDS011;65705;51.032;13.790;2023-07-31T03:49:20;4.18;;;1.00;;
76761;SDS011;65705;51.032;13.790;2023-07-31T03:51:46;3.08;;;1.02;;
76761;SDS011;65705;51.032;13.790;2023-07-31T03:54:11;4.72;;;1.52;;
76761;SDS011;65705;51.032;13.790;2023-07-31T03:56:38;4.93;;;1.35;;
76761;SDS011;65705;51.032;13.790;2023-07-31T03:59:04;8.52;;;1.50;;
76761;SDS011;65705;51.032;13.790;2023-07-31T04:01:29;6.03;;;1.40;;
76761;SDS011;65705;51.032;13.790;2023-07-31T04:03:55;3.30;;;0.90;;
76761;SDS011;65705;51.032;13.790;2023-07-31T04:06:21;6.22;;;1.10;;
76761;SDS011;65705;51.032;13.790;2023-07-31T04:08:47;3.47;;;1.20;;
76761;SDS011;65705;51.032;13.790;2023-07-31T04:11:12;3.75;;;1.58;;
76761;SDS011;65705;51.032;13.790;2023-07-31T04:13:38;9.65;;;2.25;;
76761;SDS011;65705;51.032;13.790;2023-07-31T04:16:04;6.05;;;2.22;;
76761;SDS011;65705;51.032;13.790;2023-07-31T04:18:30;4.68;;;1.20;;
76761;SDS011;65705;51.032;13.790;2023-07-31T04:20:56;5.32;;;1.40;;
76761;SDS011;65705;51.032;13.790;2023-07-31T04:23:26;6.85;;;1.52;;
76761;SDS011;65705;51.032;13.790;2023-07-31T04:25:52;4.15;;;1.40;;
76761;SDS011;65705;51.032;13.790;2023-07-31T04:28:18;5.45;;;1.30;;
76761;SDS011;65705;51.032;13.790;2023-07-31T04:30:43;4.32;;;1.50;;
76761;SDS011;65705;51.032;13.790;2023-07-31T04:33:09;5.35;;;1.50;;
76761;SDS011;65705;51.032;13.790;2023-07-31T04:35:35;4.90;;;0.98;;
76761;SDS011;65705;51.032;13.790;2023-07-31T04:38:00;4.55;;;1.30;;
76761;SDS011;65705;51.032;13.790;2023-07-31T04:40:26;2.92;;;1.20;;
76761;SDS011;65705;51.032;13.790;2023-07-31T04:42:52;4.38;;;1.20;;
76761;SDS011;65705;51.032;13.790;2023-07-31T04:45:18;5.00;;;1.70;;
76761;SDS011;65705;51.032;13.790;2023-07-31T04:47:43;4.72;;;1.73;;
76761;SDS011;65705;51.032;13.790;2023-07-31T04:50:09;6.30;;;1.77;;
76761;SDS011;65705;51.032;13.790;2023-07-31T04:52:35;3.85;;;1.30;;
76761;SDS011;65705;51.032;13.790;2023-07-31T04:55:01;4.13;;;1.50;;
76761;SDS011;65705;51.032;13.790;2023-07-31T04:57:26;3.97;;;1.42;;
76761;SDS011;65705;51.032;13.790;2023-07-31T04:59:52;4.43;;;1.40;;
76761;SDS011;65705;51.032;13.790;2023-07-31T05:02:18;4.22;;;1.40;;
76761;SDS011;65705;51.032;13.790;2023-07-31T05:04:43;6.85;;;1.60;;
76761;SDS011;65705;51.032;13.790;2023-07-31T05:07:09;4.20;;;1.20;;
76761;SDS011;65705;51.032;13.790;2023-07-31T05:09:35;6.85;;;1.80;;
76761;SDS011;65705;51.032;13.790;2023-07-31T05:12:00;5.25;;;1.45;;
76761;SDS011;65705;51.032;13.790;2023-07-31T05:14:26;4.90;;;1.65;;
76761;SDS011;65705;51.032;13.790;2023-07-31T05:16:52;4.85;;;1.50;;
76761;SDS011;65705;51.032;13.790;2023-07-31T05:19:17;4.88;;;1.70;;
76761;SDS011;65705;51.032;13.790;2023-07-31T05:21:43;7.10;;;1.60;;
76761;SDS011;65705;51.032;13.790;2023-07-31T05:24:10;4.80;;;1.98;;
76761;SDS011;65705;51.032;13.790;2023-07-31T05:26:36;8.30;;;2.55;;
76761;SDS011;65705;51.032;13.790;2023-07-31T05:29:03;4.80;;;1.70;;
76761;SDS011;65705;51.032;13.790;2023-07-31T05:31:29;4.47;;;1.63;;
76761;SDS011;65705;51.032;13.790;2023-07-31T05:33:54;5.15;;;1.70;;
76761;SDS011;65705;51.032;13.790;2023-07-31T05:36:20;7.22;;;1.77;;
76761;SDS011;65705;51.032;13.790;2023-07-31T05:38:46;6.10;;;1.58;;
76761;SDS011;65705;51.032;13.790;2023-07-31T05:41:12;6.68;;;1.60;;
76761;SDS011;65705;51.032;13.790;2023-07-31T05:43:38;4.22;;;1.50;;
76761;SDS011;65705;51.032;13.790;2023-07-31T05:46:03;5.75;;;1.75;;
76761;SDS011;65705;51.032;13.790;2023-07-31T05:48:29;7.22;;;1.50;;
76761;SDS011;65705;51.032;13.790;2023-07-31T05:50:55;6.20;;;1.73;;
76761;SDS011;65705;51.032;13.790;2023-07-31T05:53:21;3.15;;;1.40;;
76761;SDS011;65705;51.032;13.790;2023-07-31T05:55:46;7.53;;;1.17;;
76761;SDS011;65705;51.032;13.790;2023-07-31T05:58:12;5.85;;;1.50;;
76761;SDS011;65705;51.032;13.790;2023-07-31T06:00:38;4.95;;;1.35;;
76761;SDS011;65705;51.032;13.790;2023-07-31T06:03:03;5.00;;;1.65;;
76761;SDS011;65705;51.032;13.790;2023-07-31T06:05:29;7.57;;;1.63;;
76761;SDS011;65705;51.032;13.790;2023-07-31T06:07:55;5.32;;;1.40;;
76761;SDS011;65705;51.032;13.790;2023-07-31T06:10:22;6.50;;;1.50;;
76761;SDS011;65705;51.032;13.790;2023-07-31T06:12:47;4.65;;;1.77;;
76761;SDS011;65705;51.032;13.790;2023-07-31T06:15:13;4.35;;;1.42;;
76761;SDS011;65705;51.032;13.790;2023-07-31T06:17:39;4.65;;;1.73;;
76761;SDS011;65705;51.032;13.790;2023-07-31T06:20:05;8.55;;;1.83;;
76761;SDS011;65705;51.032;13.790;2023-07-31T06:22:32;6.65;;;1.40;;
76761;SDS011;65705;51.032;13.790;2023-07-31T06:24:57;6.03;;;1.92;;
76761;SDS011;65705;51.032;13.790;2023-07-31T06:27:23;4.22;;;1.48;;
76761;SDS011;65705;51.032;13.790;2023-07-31T06:29:49;5.05;;;1.52;;
76761;SDS011;65705;51.032;13.790;2023-07-31T06:32:15;4.82;;;1.50;;
76761;SDS011;65705;51.032;13.790;2023-07-31T06:34:40;5.25;;;1.55;;
76761;SDS011;65705;51.032;13.790;2023-07-31T06:37:06;7.30;;;1.52;;
76761;SDS011;65705;51.032;13.790;2023-07-31T06:39:32;5.13;;;1.77;;
76761;SDS011;65705;51.032;13.790;2023-07-31T06:41:58;8.10;;;1.67;;
76761;SDS011;65705;51.032;13.790;2023-07-31T06:44:24;5.28;;;1.23;;
76761;SDS011;65705;51.032;13.790;2023-07-31T06:46:50;4.43;;;1.60;;
76761;SDS011;65705;51.032;13.790;2023-07-31T06:49:16;4.72;;;1.48;;
76761;SDS011;65705;51.032;13.790;2023-07-31T06:51:42;6.10;;;1.60;;
76761;SDS011;65705;51.032;13.790;2023-07-31T06:54:08;4.97;;;1.23;;
76761;SDS011;65705;51.032;13.790;2023-07-31T06:56:34;5.22;;;1.60;;
76761;SDS011;65705;51.032;13.790;2023-07-31T06:59:00;4.30;;;1.48;;
76761;SDS011;65705;51.032;13.790;2023-07-31T07:01:25;5.10;;;1.55;;
76761;SDS011;65705;51.032;13.790;2023-07-31T07:03:52;6.22;;;1.73;;
76761;SDS011;65705;51.032;13.790;2023-07-31T07:06:18;6.93;;;1.80;;
76761;SDS011;65705;51.032;13.790;2023-07-31T07:08:44;6.30;;;1.63;;
76761;SDS011;65705;51.032;13.790;2023-07-31T07:11:10;4.38;;;1.83;;
76761;SDS011;65705;51.032;13.790;2023-07-31T07:13:35;4.20;;;1.58;;
76761;SDS011;65705;51.032;13.790;2023-07-31T07:16:01;9.32;;;1.58;;
76761;SDS011;65705;51.032;13.790;2023-07-31T07:18:27;6.05;;;1.75;;
76761;SDS011;65705;51.032;13.790;2023-07-31T07:20:53;7.25;;;1.65;;
76761;SDS011;65705;51.032;13.790;2023-07-31T07:23:19;4.07;;;1.75;;
76761;SDS011;65705;51.032;13.790;2023-07-31T07:25:46;5.55;;;1.88;;
76761;SDS011;65705;51.032;13.790;2023-07-31T07:28:12;6.65;;;1.77;;
76761;SDS011;65705;51.032;13.790;2023-07-31T07:30:39;3.22;;;1.70;;
76761;SDS011;65705;51.032;13.790;2023-07-31T07:33:05;6.13;;;1.75;;
76761;SDS011;65705;51.032;13.790;2023-07-31T07:35:33;4.35;;;1.50;;
76761;SDS011;65705;51.032;13.790;2023-07-31T07:38:00;4.72;;;1.63;;
76761;SDS011;65705;51.032;13.790;2023-07-31T07:40:26;11.80;;;3.15;;
76761;SDS011;65705;51.032;13.790;2023-07-31T07:42:52;3.90;;;1.33;;
76761;SDS011;65705;51.032;13.790;2023-07-31T07:45:18;10.25;;;2.00;;
76761;SDS011;65705;51.032;13.790;2023-07-31T07:47:43;6.38;;;2.20;;
76761;SDS011;65705;51.032;13.790;2023-07-31T07:50:09;6.30;;;2.45;;
76761;SDS011;65705;51.032;13.790;2023-07-31T07:52:35;10.57;;;2.88;;
76761;SDS011;65705;51.032;13.790;2023-07-31T07:55:01;5.53;;;1.88;;
76761;SDS011;65705;51.032;13.790;2023-07-31T07:57:27;5.45;;;1.80;;
76761;SDS011;65705;51.032;13.790;2023-07-31T07:59:53;5.03;;;1.77;;
76761;SDS011;65705;51.032;13.790;2023-07-31T08:02:18;4.90;;;2.00;;
76761;SDS011;65705;51.032;13.790;2023-07-31T08:04:44;4.90;;;1.70;;
76761;SDS011;65705;51.032;13.790;2023-07-31T08:07:13;4.97;;;1.92;;
76761;SDS011;65705;51.032;13.790;2023-07-31T08:09:39;2.97;;;1.48;;
76761;SDS011;65705;51.032;13.790;2023-07-31T08:12:05;5.10;;;2.38;;
76761;SDS011;65705;51.032;13.790;2023-07-31T08:14:31;4.07;;;1.65;;
76761;SDS011;65705;51.032;13.790;2023-07-31T08:16:57;5.20;;;1.73;;
76761;SDS011;65705;51.032;13.790;2023-07-31T08:19:23;4.20;;;1.40;;
76761;SDS011;65705;51.032;13.790;2023-07-31T08:21:49;6.20;;;1.70;;
76761;SDS011;65705;51.032;13.790;2023-07-31T08:24:14;7.03;;;2.10;;
76761;SDS011;65705;51.032;13.790;2023-07-31T08:26:40;7.32;;;1.42;;
76761;SDS011;65705;51.032;13.790;2023-07-31T08:29:06;4.30;;;1.52;;
76761;SDS011;65705;51.032;13.790;2023-07-31T08:31:32;4.78;;;1.50;;
76761;SDS011;65705;51.032;13.790;2023-07-31T08:33:57;5.40;;;1.88;;
76761;SDS011;65705;51.032;13.790;2023-07-31T08:36:23;5.47;;;1.67;;
76761;SDS011;65705;51.032;13.790;2023-07-31T08:38:49;9.98;;;1.92;;
76761;SDS011;65705;51.032;13.790;2023-07-31T08:41:15;7.90;;;2.50;;
76761;SDS011;65705;51.032;13.790;2023-07-31T08:43:45;6.07;;;2.00;;
76761;SDS011;65705;51.032;13.790;2023-07-31T08:46:11;5.75;;;2.03;;
76761;SDS011;65705;51.032;13.790;2023-07-31T08:48:41;4.15;;;1.65;;
76761;SDS011;65705;51.032;13.790;2023-07-31T08:51:08;5.15;;;1.98;;
76761;SDS011;65705;51.032;13.790;2023-07-31T08:53:34;4.22;;;1.60;;
76761;SDS011;65705;51.032;13.790;2023-07-31T08:56:00;9.55;;;2.20;;
76761;SDS011;65705;51.032;13.790;2023-07-31T08:58:27;7.00;;;2.20;;
76761;SDS011;65705;51.032;13.790;2023-07-31T09:00:57;9.73;;;1.95;;
76761;SDS011;65705;51.032;13.790;2023-07-31T09:03:26;8.02;;;2.30;;
76761;SDS011;65705;51.032;13.790;2023-07-31T09:05:51;6.45;;;2.17;;
76761;SDS011;65705;51.032;13.790;2023-07-31T09:08:21;9.07;;;2.00;;
76761;SDS011;65705;51.032;13.790;2023-07-31T09:10:47;5.97;;;2.00;;
76761;SDS011;65705;51.032;13.790;2023-07-31T09:13:13;5.70;;;2.40;;
76761;SDS011;65705;51.032;13.790;2023-07-31T09:15:40;3.65;;;1.80;;
76761;SDS011;65705;51.032;13.790;2023-07-31T09:18:08;7.13;;;1.90;;
76761;SDS011;65705;51.032;13.790;2023-07-31T09:20:34;6.57;;;2.05;;
76761;SDS011;65705;51.032;13.790;2023-07-31T09:25:37;5.03;;;2.03;;
76761;SDS011;65705;51.032;13.790;2023-07-31T09:28:04;8.18;;;2.33;;
76761;SDS011;65705;51.032;13.790;2023-07-31T09:30:53;5.82;;;1.65;;
76761;SDS011;65705;51.032;13.790;2023-07-31T09:33:18;5.57;;;1.73;;
76761;SDS011;65705;51.032;13.790;2023-07-31T09:35:44;5.05;;;1.83;;
76761;SDS011;65705;51.032;13.790;2023-07-31T09:38:13;6.70;;;2.63;;
76761;SDS011;65705;51.032;13.790;2023-07-31T09:40:41;6.30;;;2.95;;
76761;SDS011;65705;51.032;13.790;2023-07-31T09:43:18;6.93;;;2.75;;
76761;SDS011;65705;51.032;13.790;2023-07-31T09:45:45;6.13;;;2.10;;
76761;SDS011;65705;51.032;13.790;2023-07-31T09:48:15;5.90;;;2.15;;
76761;SDS011;65705;51.032;13.790;2023-07-31T09:50:43;5.20;;;1.90;;
76761;SDS011;65705;51.032;13.790;2023-07-31T09:53:10;7.88;;;2.22;;
76761;SDS011;65705;51.032;13.790;2023-07-31T09:55:37;6.30;;;2.03;;
76761;SDS011;65705;51.032;13.790;2023-07-31T09:58:04;4.90;;;2.05;;
76761;SDS011;65705;51.032;13.790;2023-07-31T10:00:31;7.45;;;2.42;;
76761;SDS011;65705;51.032;13.790;2023-07-31T10:02:58;6.82;;;2.75;;
76761;SDS011;65705;51.032;13.790;2023-07-31T10:05:32;4.95;;;1.73;;
76761;SDS011;65705;51.032;13.790;2023-07-31T10:08:00;5.00;;;1.50;;
76761;SDS011;65705;51.032;13.790;2023-07-31T10:10:26;9.75;;;2.10;;
76761;SDS011;65705;51.032;13.790;2023-07-31T10:12:53;7.80;;;1.90;;
76761;SDS011;65705;51.032;13.790;2023-07-31T10:15:21;4.75;;;2.05;;
76761;SDS011;65705;51.032;13.790;2023-07-31T10:17:48;4.45;;;1.60;;
76761;SDS011;65705;51.032;13.790;2023-07-31T10:20:14;3.10;;;1.45;;
76761;SDS011;65705;51.032;13.790;2023-07-31T10:22:44;4.88;;;1.73;;
76761;SDS011;65705;51.032;13.790;2023-07-31T10:25:13;5.65;;;1.90;;
76761;SDS011;65705;51.032;13.790;2023-07-31T10:27:41;5.32;;;1.73;;
76761;SDS011;65705;51.032;13.790;2023-07-31T10:30:11;7.05;;;2.20;;
76761;SDS011;65705;51.032;13.790;2023-07-31T10:32:41;11.35;;;5.05;;
76761;SDS011;65705;51.032;13.790;2023-07-31T10:35:08;9.60;;;4.35;;
76761;SDS011;65705;51.032;13.790;2023-07-31T10:37:39;8.27;;;3.42;;
76761;SDS011;65705;51.032;13.790;2023-07-31T10:40:06;5.80;;;2.10;;
76761;SDS011;65705;51.032;13.790;2023-07-31T10:42:48;5.13;;;1.92;;
76761;SDS011;65705;51.032;13.790;2023-07-31T10:45:39;7.55;;;1.88;;
76761;SDS011;65705;51.032;13.790;2023-07-31T10:48:14;4.85;;;1.65;;
76761;SDS011;65705;51.032;13.790;2023-07-31T10:50:47;4.32;;;1.70;;
76761;SDS011;65705;51.032;13.790;2023-07-31T10:53:30;4.70;;;1.88;;
76761;SDS011;65705;51.032;13.790;2023-07-31T10:55:58;5.80;;;2.10;;
76761;SDS011;65705;51.032;13.790;2023-07-31T10:58:25;6.68;;;1.90;;
76761;SDS011;65705;51.032;13.790;2023-07-31T11:00:56;5.85;;;1.95;;
76761;SDS011;65705;51.032;13.790;2023-07-31T11:03:29;7.55;;;1.88;;
76761;SDS011;65705;51.032;13.790;2023-07-31T11:06:09;5.55;;;1.92;;
76761;SDS011;65705;51.032;13.790;2023-07-31T11:08:36;3.85;;;1.60;;
76761;SDS011;65705;51.032;13.790;2023-07-31T11:11:08;5.38;;;1.88;;
76761;SDS011;65705;51.032;13.790;2023-07-31T11:13:48;6.20;;;1.90;;
76761;SDS011;65705;51.032;13.790;2023-07-31T11:16:15;4.75;;;1.80;;
76761;SDS011;65705;51.032;13.790;2023-07-31T11:18:43;4.65;;;1.73;;
76761;SDS011;65705;51.032;13.790;2023-07-31T11:21:28;4.47;;;1.55;;
76761;SDS011;65705;51.032;13.790;2023-07-31T11:23:57;4.13;;;1.80;;
76761;SDS011;65705;51.032;13.790;2023-07-31T11:26:23;4.93;;;1.88;;
76761;SDS011;65705;51.032;13.790;2023-07-31T11:28:50;5.07;;;2.00;;
76761;SDS011;65705;51.032;13.790;2023-07-31T11:31:16;4.95;;;2.40;;
76761;SDS011;65705;51.032;13.790;2023-07-31T11:33:43;5.82;;;2.80;;
76761;SDS011;65705;51.032;13.790;2023-07-31T11:36:16;7.05;;;2.90;;
76761;SDS011;65705;51.032;13.790;2023-07-31T11:38:43;4.50;;;1.63;;
76761;SDS011;65705;51.032;13.790;2023-07-31T11:41:09;4.78;;;1.88;;
76761;SDS011;65705;51.032;13.790;2023-07-31T11:43:34;4.60;;;2.20;;
76761;SDS011;65705;51.032;13.790;2023-07-31T11:46:02;4.80;;;2.20;;
76761;SDS011;65705;51.032;13.790;2023-07-31T11:48:29;5.05;;;1.77;;
76761;SDS011;65705;51.032;13.790;2023-07-31T11:50:59;5.15;;;1.73;;
76761;SDS011;65705;51.032;13.790;2023-07-31T11:53:28;4.38;;;1.75;;
76761;SDS011;65705;51.032;13.790;2023-07-31T11:55:59;3.20;;;1.40;;
76761;SDS011;65705;51.032;13.790;2023-07-31T11:58:26;3.95;;;1.60;;
76761;SDS011;65705;51.032;13.790;2023-07-31T12:00:54;3.22;;;1.52;;
76761;SDS011;65705;51.032;13.790;2023-07-31T12:03:21;6.35;;;1.58;;
76761;SDS011;65705;51.032;13.790;2023-07-31T12:05:47;3.08;;;1.52;;
76761;SDS011;65705;51.032;13.790;2023-07-31T12:08:13;4.32;;;1.90;;
76761;SDS011;65705;51.032;13.790;2023-07-31T12:10:39;4.53;;;1.58;;
76761;SDS011;65705;51.032;13.790;2023-07-31T12:13:19;4.78;;;1.90;;
76761;SDS011;65705;51.032;13.790;2023-07-31T12:15:55;6.47;;;1.50;;
76761;SDS011;65705;51.032;13.790;2023-07-31T12:18:23;4.07;;;1.50;;
76761;SDS011;65705;51.032;13.790;2023-07-31T12:20:54;3.40;;;1.27;;
76761;SDS011;65705;51.032;13.790;2023-07-31T12:23:22;4.75;;;1.42;;
76761;SDS011;65705;51.032;13.790;2023-07-31T12:26:15;3.92;;;1.40;;
76761;SDS011;65705;51.032;13.790;2023-07-31T12:31:09;4.57;;;1.45;;
76761;SDS011;65705;51.032;13.790;2023-07-31T12:33:37;2.60;;;1.48;;
76761;SDS011;65705;51.032;13.790;2023-07-31T12:36:07;6.05;;;2.20;;
76761;SDS011;65705;51.032;13.790;2023-07-31T12:38:35;3.78;;;1.75;;
76761;SDS011;65705;51.032;13.790;2023-07-31T12:41:01;5.78;;;1.73;;
76761;SDS011;65705;51.032;13.790;2023-07-31T12:43:26;3.05;;;1.33;;
76761;SDS011;65705;51.032;13.790;2023-07-31T12:45:54;4.95;;;1.52;;
76761;SDS011;65705;51.032;13.790;2023-07-31T12:48:20;4.45;;;1.80;;
76761;SDS011;65705;51.032;13.790;2023-07-31T12:50:46;4.85;;;1.77;;
76761;SDS011;65705;51.032;13.790;2023-07-31T12:53:11;4.28;;;1.60;;
76761;SDS011;65705;51.032;13.790;2023-07-31T12:55:37;3.55;;;1.58;;
76761;SDS011;65705;51.032;13.790;2023-07-31T12:58:03;3.55;;;1.80;;
76761;SDS011;65705;51.032;13.790;2023-07-31T13:00:29;3.90;;;1.83;;
76761;SDS011;65705;51.032;13.790;2023-07-31T13:02:55;6.57;;;1.92;;
76761;SDS011;65705;51.032;13.790;2023-07-31T13:05:20;4.40;;;2.10;;
76761;SDS011;65705;51.032;13.790;2023-07-31T13:07:47;3.47;;;1.50;;
76761;SDS011;65705;51.032;13.790;2023-07-31T13:10:13;5.63;;;1.70;;
76761;SDS011;65705;51.032;13.790;2023-07-31T13:12:39;4.55;;;2.20;;
76761;SDS011;65705;51.032;13.790;2023-07-31T13:15:05;3.42;;;1.80;;
76761;SDS011;65705;51.032;13.790;2023-07-31T13:17:31;3.72;;;1.42;;
76761;SDS011;65705;51.032;13.790;2023-07-31T13:19:58;4.45;;;1.55;;
76761;SDS011;65705;51.032;13.790;2023-07-31T13:22:24;5.45;;;1.90;;
76761;SDS011;65705;51.032;13.790;2023-07-31T13:24:49;3.63;;;1.77;;
76761;SDS011;65705;51.032;13.790;2023-07-31T13:27:15;4.65;;;1.95;;
76761;SDS011;65705;51.032;13.790;2023-07-31T13:29:45;5.43;;;1.85;;
76761;SDS011;65705;51.032;13.790;2023-07-31T13:32:11;5.97;;;2.20;;
76761;SDS011;65705;51.032;13.790;2023-07-31T13:34:37;6.88;;;2.30;;
76761;SDS011;65705;51.032;13.790;2023-07-31T13:37:03;5.25;;;1.73;;
76761;SDS011;65705;51.032;13.790;2023-07-31T13:39:31;5.35;;;2.05;;
76761;SDS011;65705;51.032;13.790;2023-07-31T13:41:58;4.03;;;1.70;;
76761;SDS011;65705;51.032;13.790;2023-07-31T13:44:24;4.35;;;2.05;;
76761;SDS011;65705;51.032;13.790;2023-07-31T13:46:49;5.25;;;1.70;;
76761;SDS011;65705;51.032;13.790;2023-07-31T13:49:15;3.88;;;1.65;;
76761;SDS011;65705;51.032;13.790;2023-07-31T13:51:41;5.20;;;1.92;;
76761;SDS011;65705;51.032;13.790;2023-07-31T13:54:07;5.90;;;1.52;;
76761;SDS011;65705;51.032;13.790;2023-07-31T13:56:32;7.20;;;2.08;;
76761;SDS011;65705;51.032;13.790;2023-07-31T13:58:58;6.93;;;1.77;;
76761;SDS011;65705;51.032;13.790;2023-07-31T14:01:26;4.22;;;1.60;;
76761;SDS011;65705;51.032;13.790;2023-07-31T14:03:52;4.97;;;1.70;;
76761;SDS011;65705;51.032;13.790;2023-07-31T14:06:18;4.93;;;1.60;;
76761;SDS011;65705;51.032;13.790;2023-07-31T14:08:44;3.92;;;1.52;;
76761;SDS011;65705;51.032;13.790;2023-07-31T14:11:10;4.78;;;2.25;;
76761;SDS011;65705;51.032;13.790;2023-07-31T14:13:36;3.95;;;2.00;;
76761;SDS011;65705;51.032;13.790;2023-07-31T14:16:01;3.40;;;1.75;;
76761;SDS011;65705;51.032;13.790;2023-07-31T14:18:27;5.28;;;1.95;;
76761;SDS011;65705;51.032;13.790;2023-07-31T14:20:53;4.07;;;1.77;;
76761;SDS011;65705;51.032;13.790;2023-07-31T14:23:18;5.18;;;1.92;;
76761;SDS011;65705;51.032;13.790;2023-07-31T14:25:45;4.28;;;1.70;;
76761;SDS011;65705;51.032;13.790;2023-07-31T14:28:11;4.63;;;1.73;;
76761;SDS011;65705;51.032;13.790;2023-07-31T14:30:37;6.03;;;1.77;;
76761;SDS011;65705;51.032;13.790;2023-07-31T14:33:03;3.65;;;1.80;;
76761;SDS011;65705;51.032;13.790;2023-07-31T14:35:29;5.07;;;1.90;;
76761;SDS011;65705;51.032;13.790;2023-07-31T14:37:54;4.60;;;1.85;;
76761;SDS011;65705;51.032;13.790;2023-07-31T14:40:20;4.30;;;1.90;;
76761;SDS011;65705;51.032;13.790;2023-07-31T14:42:46;7.10;;;2.08;;